Time;durP1;ratioP1;P1;durP2;ratioP2;P2;SDS_P1;SDS_P2;PMS_P1;PMS_P2;Temp;Humidity;BMP_temperature;BMP_pressure;BME280_temperature;BME280_humidity;BME280_pressure;Samples;Min_cycle;Max_cycle;Signal;HPM_P1;HPM_P2
2022/03/11 00:01:08;;;;;;;45.42;19.58;;;-0.70;99.90;;;;;;5096274;28;20032;-53
2022/03/11 00:03:34;;;;;;;50.15;20.05;;;-0.70;99.90;;;;;;5095790;28;20024;-53
2022/03/11 00:06:00;;;;;;;39.58;17.92;;;-1.00;99.90;;;;;;5095913;28;20412;-53
2022/03/11 00:08:26;;;;;;;46.90;19.77;;;-1.00;99.90;;;;;;5095941;28;20085;-53
2022/03/11 00:10:52;;;;;;;50.55;21.50;;;-1.10;99.90;;;;;;5057071;28;20057;-53
2022/03/11 00:13:18;;;;;;;46.33;20.17;;;-1.20;99.90;;;;;;5055353;28;20371;-53
2022/03/11 00:15:44;;;;;;;51.83;20.35;;;-1.20;99.90;;;;;;5055351;28;20029;-53
2022/03/11 00:18:10;;;;;;;56.33;23.15;;;-1.30;99.90;;;;;;5055543;28;20040;-53
2022/03/11 00:20:36;;;;;;;49.67;21.08;;;-1.30;99.90;;;;;;5055159;28;20467;-53
2022/03/11 00:23:03;;;;;;;288.38;106.18;;;-1.50;99.90;;;;;;5055601;28;20029;-53
2022/03/11 00:25:32;;;;;;;320.75;118.63;;;-1.50;99.90;;;;;;5055322;28;20029;-53
2022/03/11 00:28:01;;;;;;;238.45;85.95;;;-1.60;99.90;;;;;;5055070;28;20043;-53
2022/03/11 00:30:30;;;;;;;76.47;31.65;;;-1.60;99.90;;;;;;5055313;28;20033;-53
2022/03/11 00:32:56;;;;;;;67.00;23.02;;;-1.60;99.90;;;;;;5055006;28;20036;-53
2022/03/11 00:35:22;;;;;;;58.20;22.58;;;-1.70;99.90;;;;;;5055243;28;20470;-53
2022/03/11 00:37:48;;;;;;;56.60;20.83;;;-1.70;99.90;;;;;;5054912;28;20029;-53
2022/03/11 00:40:14;;;;;;;41.20;16.25;;;-1.70;99.90;;;;;;5054945;28;20029;-53
2022/03/11 00:42:41;;;;;;;41.97;16.80;;;-1.80;99.90;;;;;;5054721;28;20382;-53
2022/03/11 00:45:07;;;;;;;44.42;16.10;;;-1.80;99.90;;;;;;5054992;28;20228;-53
2022/03/11 00:47:33;;;;;;;37.63;16.27;;;-1.70;99.90;;;;;;5054506;28;20084;-53
2022/03/11 00:50:00;;;;;;;42.88;16.52;;;-1.80;99.90;;;;;;5054847;28;20065;-53
2022/03/11 00:52:27;;;;;;;177.70;65.60;;;-2.00;99.90;;;;;;5036874;28;20037;-53
2022/03/11 00:54:53;;;;;;;113.55;44.25;;;-2.00;99.90;;;;;;5054387;28;20627;-53
2022/03/11 00:57:19;;;;;;;55.45;24.38;;;-2.00;99.90;;;;;;5054708;28;20047;-53
2022/03/11 00:59:45;;;;;;;72.95;31.17;;;-2.10;99.90;;;;;;5054279;28;20108;-53
2022/03/11 01:02:11;;;;;;;63.00;28.20;;;-2.20;99.90;;;;;;5054301;28;20475;-53
2022/03/11 01:04:37;;;;;;;47.65;20.67;;;-2.20;99.90;;;;;;5054334;28;20131;-53
2022/03/11 01:07:03;;;;;;;58.97;23.83;;;-2.30;99.90;;;;;;5054399;28;20029;-53
2022/03/11 01:09:29;;;;;;;49.65;22.63;;;-2.30;99.90;;;;;;5056094;28;20401;-53
2022/03/11 01:11:58;;;;;;;52.72;22.17;;;-2.30;99.90;;;;;;5054190;28;20021;-53
2022/03/11 01:14:24;;;;;;;69.07;25.88;;;-2.30;99.90;;;;;;5054517;28;20032;-53
2022/03/11 01:16:49;;;;;;;58.70;22.50;;;-2.30;99.90;;;;;;5066238;28;20025;-53
2022/03/11 01:19:15;;;;;;;80.20;28.35;;;-2.40;99.90;;;;;;5074160;28;20055;-53
2022/03/11 01:21:41;;;;;;;80.32;29.08;;;-2.40;99.90;;;;;;5088168;28;20062;-53
2022/03/11 01:24:07;;;;;;;70.60;26.05;;;-2.50;99.90;;;;;;5094430;28;20028;-53
2022/03/11 01:26:34;;;;;;;59.08;24.48;;;-2.50;99.90;;;;;;5094223;28;20346;-53
2022/03/11 01:29:00;;;;;;;54.22;20.48;;;-2.60;99.90;;;;;;5094551;28;20024;-53
2022/03/11 01:31:26;;;;;;;76.40;25.40;;;-2.50;99.90;;;;;;5094215;28;20031;-53
2022/03/11 01:33:52;;;;;;;64.85;24.33;;;-2.40;99.90;;;;;;5093929;28;20555;-53
2022/03/11 01:36:17;;;;;;;54.72;22.88;;;-2.50;99.90;;;;;;5094279;28;20035;-53
2022/03/11 01:38:43;;;;;;;55.63;22.63;;;-2.60;99.90;;;;;;5094064;28;20023;-53
2022/03/11 01:41:10;;;;;;;52.42;21.73;;;-2.70;99.90;;;;;;5094303;28;20036;-53
2022/03/11 01:44:09;;;;;;;67.18;26.08;;;-2.80;99.90;;;;;;5094038;28;20432;-53
2022/03/11 01:46:36;;;;;;;91.65;31.15;;;-2.80;99.90;;;;;;5093870;28;20488;-53
2022/03/11 01:49:06;;;;;;;69.65;27.60;;;-2.90;99.90;;;;;;5093977;28;20040;-53
2022/03/11 01:51:33;;;;;;;218.63;55.37;;;-2.90;99.90;;;;;;5093929;28;20066;-53
2022/03/11 01:54:00;;;;;;;1055.40;294.30;;;-2.90;99.90;;;;;;5093765;28;20422;-53
2022/03/11 01:56:26;;;;;;;236.45;60.83;;;-2.90;99.90;;;;;;5093998;28;20023;-53
2022/03/11 01:58:55;;;;;;;539.50;125.90;;;-2.90;99.90;;;;;;5093988;28;20374;-53
2022/03/11 02:01:23;;;;;;;925.85;262.42;;;-2.90;99.90;;;;;;5094253;28;20062;-53
2022/03/11 02:03:49;;;;;;;746.88;198.73;;;-2.90;99.90;;;;;;5093672;28;20036;-53
2022/03/11 02:06:18;;;;;;;218.43;55.67;;;-2.90;99.90;;;;;;5093949;28;20036;-53
2022/03/11 02:08:44;;;;;;;162.88;43.05;;;-2.90;99.90;;;;;;5093779;28;20058;-53
2022/03/11 02:11:13;;;;;;;288.83;71.60;;;-2.90;99.90;;;;;;5073623;28;20478;-53
2022/03/11 02:13:52;;;;;;;213.38;57.58;;;-3.00;99.90;;;;;;5073722;28;20035;-53
2022/03/11 02:16:21;;;;;;;184.55;49.88;;;-3.00;99.90;;;;;;5063555;28;20024;-53
2022/03/11 02:18:48;;;;;;;403.80;96.90;;;-3.10;99.90;;;;;;5093801;28;20040;-53
2022/03/11 02:21:17;;;;;;;311.17;77.78;;;-3.10;99.90;;;;;;5093886;28;20028;-53
2022/03/11 02:23:45;;;;;;;171.77;48.83;;;-3.10;99.90;;;;;;5093670;28;20036;-53
2022/03/11 02:26:14;;;;;;;322.23;80.28;;;-3.10;99.90;;;;;;5093948;28;20505;-53
2022/03/11 02:28:40;;;;;;;430.35;103.85;;;-3.10;99.90;;;;;;5093624;28;20035;-53
2022/03/11 02:31:06;;;;;;;431.58;104.80;;;-3.20;99.90;;;;;;5093547;28;20020;-53
2022/03/11 02:33:32;;;;;;;479.70;110.57;;;-3.20;99.90;;;;;;5094647;28;20465;-53
2022/03/11 02:35:59;;;;;;;531.78;130.32;;;-3.30;99.90;;;;;;5097571;28;20032;-53
2022/03/11 02:38:26;;;;;;;382.55;93.82;;;-3.30;99.90;;;;;;5097617;28;20544;-53
2022/03/11 02:40:52;;;;;;;107.88;34.60;;;-3.20;99.90;;;;;;5097454;28;20089;-53
2022/03/11 02:43:18;;;;;;;95.43;34.00;;;-3.20;99.90;;;;;;5097470;28;20423;-53
2022/03/11 02:45:44;;;;;;;132.45;45.83;;;-3.30;99.90;;;;;;5097225;28;20032;-53
2022/03/11 02:48:10;;;;;;;116.53;38.47;;;-3.30;99.90;;;;;;5097400;28;20104;-53
2022/03/11 02:50:36;;;;;;;111.95;37.53;;;-3.30;99.90;;;;;;5097242;28;20560;-53
2022/03/11 02:53:02;;;;;;;118.10;36.05;;;-3.40;99.90;;;;;;5097269;28;20063;-53
2022/03/11 02:55:28;;;;;;;117.30;35.97;;;-3.50;99.90;;;;;;5097219;28;20020;-53
2022/03/11 02:57:54;;;;;;;196.90;52.83;;;-3.60;99.90;;;;;;5097280;28;20108;-53
2022/03/11 03:00:21;;;;;;;121.85;38.15;;;-3.60;99.90;;;;;;5097157;28;20063;-53
2022/03/11 03:02:47;;;;;;;240.38;62.90;;;-3.50;99.90;;;;;;5096935;28;20028;-53
2022/03/11 03:05:16;;;;;;;288.88;71.03;;;-3.60;99.90;;;;;;5097079;28;20043;-53
2022/03/11 03:07:42;;;;;;;265.73;68.57;;;-3.70;99.90;;;;;;5096807;28;20028;-53
2022/03/11 03:10:10;;;;;;;236.55;61.83;;;-3.80;99.90;;;;;;5085300;28;20044;-53
2022/03/11 03:12:38;;;;;;;281.52;71.22;;;-3.80;99.90;;;;;;5076733;28;20033;-53
2022/03/11 03:15:05;;;;;;;243.50;63.22;;;-3.80;99.90;;;;;;5076650;28;20111;-53
2022/03/11 03:17:31;;;;;;;222.90;57.65;;;-3.80;99.90;;;;;;5076679;28;20067;-53
2022/03/11 03:19:57;;;;;;;211.18;55.42;;;-3.80;99.90;;;;;;5076471;28;20024;-53
2022/03/11 03:22:23;;;;;;;176.10;50.53;;;-3.80;99.90;;;;;;5076636;28;20100;-53
2022/03/11 03:24:49;;;;;;;169.95;46.88;;;-3.80;99.90;;;;;;5076252;28;20074;-53
2022/03/11 03:27:16;;;;;;;109.55;36.33;;;-3.80;99.90;;;;;;5076361;28;20028;-53
2022/03/11 03:29:42;;;;;;;79.60;30.85;;;-3.80;99.90;;;;;;5076160;28;20508;-53
2022/03/11 03:32:08;;;;;;;81.72;31.42;;;-3.80;99.90;;;;;;5076293;28;20583;-53
2022/03/11 03:34:36;;;;;;;81.75;33.38;;;-3.80;99.90;;;;;;5058043;28;20030;-53
2022/03/11 03:37:05;;;;;;;87.03;32.45;;;-3.80;99.90;;;;;;5076358;28;20036;-53
2022/03/11 03:39:31;;;;;;;105.93;34.25;;;-3.80;99.90;;;;;;5075864;28;20081;-53
2022/03/11 03:41:57;;;;;;;110.53;33.92;;;-4.00;99.90;;;;;;5076267;28;20027;-53
2022/03/11 03:44:23;;;;;;;109.75;32.78;;;-4.10;99.90;;;;;;5076320;28;20076;-53
2022/03/11 03:46:50;;;;;;;120.20;35.92;;;-4.30;99.90;;;;;;5075675;28;20107;-53
2022/03/11 03:49:16;;;;;;;127.75;38.78;;;-4.30;99.90;;;;;;5075654;28;20474;-53
2022/03/11 03:51:42;;;;;;;122.85;39.75;;;-4.30;99.90;;;;;;5075757;28;20036;-53
2022/03/11 03:54:11;;;;;;;101.90;33.17;;;-4.30;99.90;;;;;;5075798;28;20478;-53
2022/03/11 03:56:38;;;;;;;85.10;31.85;;;-4.20;99.90;;;;;;5075736;28;20035;-53
2022/03/11 03:59:09;;;;;;;94.45;32.58;;;-4.30;99.90;;;;;;5075737;28;20028;-53
2022/03/11 04:01:37;;;;;;;94.25;31.92;;;-4.30;99.90;;;;;;5075485;28;20028;-53
2022/03/11 04:04:05;;;;;;;89.28;30.75;;;-4.30;99.90;;;;;;5075830;28;20041;-53
2022/03/11 04:06:32;;;;;;;73.93;28.02;;;-4.10;99.90;;;;;;5075477;28;20032;-53
2022/03/11 04:08:59;;;;;;;75.90;28.10;;;-4.00;99.90;;;;;;5075385;28;20048;-53
2022/03/11 04:11:26;;;;;;;72.20;25.08;;;-4.00;99.90;;;;;;5075657;28;20025;-53
2022/03/11 04:13:56;;;;;;;66.72;24.85;;;-4.10;99.90;;;;;;5075289;28;20447;-53
2022/03/11 04:16:23;;;;;;;61.95;23.48;;;-4.20;99.90;;;;;;5075458;28;20494;-53
2022/03/11 04:18:49;;;;;;;73.20;25.67;;;-4.20;99.90;;;;;;5075086;28;20177;-53
2022/03/11 04:21:17;;;;;;;83.68;27.45;;;-4.20;99.90;;;;;;5075382;28;20116;-53
2022/03/11 04:23:45;;;;;;;71.15;26.20;;;-4.20;99.90;;;;;;5075205;28;20028;-53
2022/03/11 04:26:12;;;;;;;52.65;24.48;;;-4.20;99.90;;;;;;5075302;28;20394;-53
2022/03/11 04:28:39;;;;;;;88.43;31.23;;;-4.10;99.90;;;;;;5074868;28;20028;-53
2022/03/11 04:31:07;;;;;;;83.22;31.58;;;-4.20;99.90;;;;;;5075118;28;20021;-53
2022/03/11 04:33:34;;;;;;;72.13;27.05;;;-4.20;99.90;;;;;;5074698;28;20104;-53
2022/03/11 04:36:01;;;;;;;68.65;24.38;;;-4.20;99.90;;;;;;5075046;28;20028;-53
2022/03/11 04:38:27;;;;;;;56.75;22.55;;;-4.20;99.90;;;;;;5075378;28;20028;-53
2022/03/11 04:40:53;;;;;;;59.22;20.83;;;-4.20;99.90;;;;;;5074997;28;20123;-53
2022/03/11 04:43:20;;;;;;;62.65;23.05;;;-4.00;99.90;;;;;;5074935;28;20056;-53
2022/03/11 04:45:46;;;;;;;68.78;23.40;;;-4.00;99.90;;;;;;5074693;28;20039;-53
2022/03/11 04:48:12;;;;;;;59.22;22.33;;;-3.90;99.90;;;;;;5074912;28;20028;-53
2022/03/11 04:50:39;;;;;;;56.03;23.80;;;-4.00;99.90;;;;;;5074586;28;20114;-53
2022/03/11 04:53:05;;;;;;;68.47;26.88;;;-4.00;99.90;;;;;;5074873;28;20043;-53
2022/03/11 04:55:31;;;;;;;61.15;26.42;;;-3.90;99.90;;;;;;5074555;28;20036;-53
2022/03/11 04:57:57;;;;;;;66.35;25.67;;;-3.90;99.90;;;;;;5074052;28;20032;-53
2022/03/11 05:00:23;;;;;;;73.28;28.30;;;-3.80;99.90;;;;;;5074707;28;20493;-53
2022/03/11 05:02:49;;;;;;;52.30;25.95;;;-3.80;99.90;;;;;;5074460;28;20363;-53
2022/03/11 05:05:16;;;;;;;60.75;26.73;;;-3.80;99.90;;;;;;5074249;28;20226;-53
2022/03/11 05:07:42;;;;;;;56.05;26.00;;;-3.80;99.90;;;;;;5074215;28;20050;-53
2022/03/11 05:10:13;;;;;;;56.28;25.33;;;-3.70;99.90;;;;;;5074240;28;20120;-53
2022/03/11 05:12:40;;;;;;;63.03;27.60;;;-3.70;99.90;;;;;;5074228;28;20035;-53
2022/03/11 05:15:08;;;;;;;68.78;28.15;;;-3.70;99.90;;;;;;5074314;28;20364;-53
2022/03/11 05:17:35;;;;;;;72.32;28.77;;;-3.70;99.90;;;;;;5074025;28;20086;-53
2022/03/11 05:20:05;;;;;;;70.90;27.30;;;-3.80;99.90;;;;;;5074193;28;20132;-53
2022/03/11 05:22:32;;;;;;;66.03;26.40;;;-3.70;99.90;;;;;;5074376;28;20039;-53
2022/03/11 05:24:58;;;;;;;64.68;25.63;;;-3.80;99.90;;;;;;5074353;28;20025;-53
2022/03/11 05:27:24;;;;;;;61.22;25.48;;;-3.70;99.90;;;;;;5074221;28;20498;-53
2022/03/11 05:29:50;;;;;;;62.97;26.95;;;-3.70;99.90;;;;;;5073913;28;20107;-53
2022/03/11 05:32:19;;;;;;;94.25;44.85;;;-3.30;99.90;;;;;;5073876;28;20440;-53
2022/03/11 05:34:45;;;;;;;77.70;32.47;;;-2.80;99.90;;;;;;5073863;28;20033;-53
2022/03/11 05:37:12;;;;;;;84.43;33.65;;;-2.30;99.90;;;;;;5074109;28;20048;-53
2022/03/11 05:39:38;;;;;;;111.22;38.95;;;-1.90;99.90;;;;;;5073880;28;20509;-53
2022/03/11 05:42:05;;;;;;;122.50;40.85;;;-1.30;99.90;;;;;;5074118;28;20056;-53
2022/03/11 05:44:32;;;;;;;121.47;44.83;;;-0.80;99.90;;;;;;5073763;28;20166;-53
2022/03/11 05:46:58;;;;;;;121.78;41.30;;;-0.40;99.90;;;;;;5073906;28;20095;-54
2022/03/11 05:49:24;;;;;;;117.80;44.08;;;-0.30;99.90;;;;;;5074028;28;20024;-53
2022/03/11 05:51:51;;;;;;;136.35;46.22;;;0.20;99.90;;;;;;5073633;28;20028;-53
2022/03/11 05:54:18;;;;;;;133.38;40.75;;;0.70;99.90;;;;;;5073706;28;20035;-54
2022/03/11 05:56:44;;;;;;;146.23;40.15;;;0.40;99.90;;;;;;5073800;28;20151;-54
2022/03/11 05:59:11;;;;;;;122.90;36.08;;;0.60;99.90;;;;;;5073944;28;20441;-54
2022/03/11 06:01:37;;;;;;;96.78;31.08;;;0.60;99.90;;;;;;5073613;28;20060;-54
2022/03/11 06:04:04;;;;;;;97.25;27.50;;;0.80;99.90;;;;;;5073736;28;20059;-54
2022/03/11 06:06:32;;;;;;;81.07;26.10;;;1.10;99.90;;;;;;5073784;28;20052;-53
2022/03/11 06:08:58;;;;;;;68.35;20.92;;;1.10;99.90;;;;;;5075084;28;20445;-54
2022/03/11 06:11:24;;;;;;;62.65;22.75;;;1.00;99.90;;;;;;5077805;28;20078;-54
2022/03/11 06:13:50;;;;;;;68.60;25.65;;;0.90;99.60;;;;;;5077643;28;20369;-54
2022/03/11 06:16:16;;;;;;;47.05;19.38;;;1.00;99.50;;;;;;5074741;28;20028;-54
2022/03/11 06:18:42;;;;;;;35.47;15.65;;;1.00;98.10;;;;;;5065068;28;20382;-54
2022/03/11 06:21:08;;;;;;;43.40;17.65;;;1.10;98.00;;;;;;5061585;28;20036;-54
2022/03/11 06:23:36;;;;;;;35.95;14.80;;;1.20;97.40;;;;;;5066080;28;20112;-54
2022/03/11 06:26:03;;;;;;;48.17;15.93;;;1.20;97.80;;;;;;5067503;28;20450;-54
2022/03/11 06:28:30;;;;;;;43.20;16.25;;;1.40;96.00;;;;;;5071901;28;20028;-54
2022/03/11 06:30:56;;;;;;;27.15;14.05;;;1.30;95.90;;;;;;5056970;28;20082;-53
2022/03/11 06:33:22;;;;;;;39.92;14.40;;;1.30;95.30;;;;;;5058608;28;20518;-54
2022/03/11 06:35:49;;;;;;;57.00;18.33;;;1.30;96.40;;;;;;5077750;28;20423;-54
2022/03/11 06:38:16;;;;;;;45.92;17.40;;;1.40;95.90;;;;;;5077754;28;20021;-55
2022/03/11 06:40:49;;;;;;;36.28;15.73;;;1.60;96.30;;;;;;5077185;28;20020;-55
2022/03/11 06:43:19;;;;;;;41.83;15.93;;;1.60;95.00;;;;;;5059573;28;20033;-55
2022/03/11 06:45:51;;;;;;;27.55;16.10;;;1.80;96.00;;;;;;5072035;28;20021;-55
2022/03/11 06:48:18;;;;;;;38.05;15.85;;;2.00;93.60;;;;;;5073212;28;20032;-55
2022/03/11 06:50:44;;;;;;;58.45;19.50;;;2.30;93.10;;;;;;5066283;28;20031;-55
2022/03/11 06:53:34;;;;;;;29.63;15.85;;;2.40;92.90;;;;;;5065859;28;20409;-55
2022/03/11 07:04:49;;;;;;;48.53;19.73;;;2.70;92.50;;;;;;5045225;28;20035;-54
2022/03/11 07:07:15;;;;;;;36.97;17.55;;;3.20;92.10;;;;;;5072924;28;20470;-53
2022/03/11 07:09:41;;;;;;;47.53;18.02;;;3.40;83.00;;;;;;5065305;28;20043;-56
2022/03/11 07:12:08;;;;;;;38.42;14.48;;;3.40;83.80;;;;;;5054679;28;20025;-55
2022/03/11 07:14:36;;;;;;;28.52;15.73;;;3.60;79.10;;;;;;5057078;28;20035;-53
2022/03/11 07:17:04;;;;;;;27.88;14.55;;;3.40;78.90;;;;;;5056513;28;20533;-53
2022/03/11 07:19:30;;;;;;;31.80;15.45;;;3.70;76.60;;;;;;5064633;28;20036;-53
2022/03/11 07:21:57;;;;;;;35.92;16.10;;;3.70;71.30;;;;;;5077284;28;20469;-54
2022/03/11 07:24:26;;;;;;;31.13;13.93;;;4.00;80.30;;;;;;5063401;28;20055;-54
2022/03/11 07:26:53;;;;;;;31.80;14.77;;;3.60;75.50;;;;;;5062519;28;20033;-54
2022/03/11 07:29:20;;;;;;;29.38;14.60;;;3.30;79.80;;;;;;5066897;28;20455;-54
2022/03/11 07:31:46;;;;;;;26.83;14.07;;;3.90;86.00;;;;;;5063261;28;20032;-54
2022/03/11 07:34:14;;;;;;;29.95;15.32;;;4.40;77.30;;;;;;5066330;28;20056;-54
2022/03/11 07:36:40;;;;;;;31.95;18.20;;;4.10;73.80;;;;;;5057699;28;20025;-54
2022/03/11 07:39:07;;;;;;;25.83;13.07;;;3.90;77.70;;;;;;5066353;28;20111;-54
2022/03/11 07:41:34;;;;;;;45.85;20.63;;;4.20;65.90;;;;;;5070029;28;20055;-54
2022/03/11 07:44:01;;;;;;;29.92;14.05;;;4.00;69.70;;;;;;5076088;28;20028;-54
2022/03/11 07:46:29;;;;;;;45.97;18.73;;;4.60;64.40;;;;;;5074138;28;20056;-54
2022/03/11 07:48:56;;;;;;;20.40;11.57;;;4.40;62.60;;;;;;5065449;28;20028;-54
2022/03/11 07:51:22;;;;;;;21.25;11.43;;;4.30;59.50;;;;;;5052612;28;20025;-53
2022/03/11 07:53:48;;;;;;;19.95;10.73;;;3.90;68.90;;;;;;5040472;28;20034;-54
2022/03/11 07:56:15;;;;;;;20.17;11.13;;;4.00;61.90;;;;;;5044092;28;20021;-54
2022/03/11 07:58:41;;;;;;;18.38;10.85;;;4.20;63.80;;;;;;5046968;28;20109;-54
2022/03/11 08:01:10;;;;;;;26.63;12.95;;;4.50;62.70;;;;;;5049516;28;20060;-54
2022/03/11 08:03:39;;;;;;;23.98;11.90;;;4.70;63.90;;;;;;5052607;28;20502;-54
2022/03/11 08:06:10;;;;;;;30.75;11.98;;;4.90;59.90;;;;;;5053871;28;20052;-54
2022/03/11 08:08:37;;;;;;;;;;;5.10;64.60;;;;;;5054984;28;20036;-55
2022/03/11 08:11:04;;;;;;;25.55;11.90;;;4.80;62.60;;;;;;5075985;28;19919;-54
2022/03/11 08:13:31;;;;;;;21.42;12.18;;;5.00;60.90;;;;;;5075884;28;20462;-54
2022/03/11 08:15:58;;;;;;;25.67;11.73;;;5.60;58.40;;;;;;5076383;28;20450;-54
2022/03/11 08:18:24;;;;;;;28.95;13.60;;;5.30;57.20;;;;;;5076209;28;20386;-54
2022/03/11 08:20:50;;;;;;;34.03;14.23;;;4.60;66.70;;;;;;5074954;28;20024;-54
2022/03/11 08:23:16;;;;;;;25.58;13.43;;;4.80;67.90;;;;;;5068706;28;20048;-54
2022/03/11 08:25:42;;;;;;;34.67;13.63;;;5.10;60.70;;;;;;5056478;28;20025;-54
2022/03/11 08:28:10;;;;;;;22.92;13.07;;;5.10;62.70;;;;;;5058429;28;20032;-54
2022/03/11 08:30:39;;;;;;;27.95;12.75;;;5.90;59.00;;;;;;5075562;28;20036;-54
2022/03/11 08:33:05;;;;;;;31.08;13.60;;;5.40;56.90;;;;;;5069068;28;20020;-54
2022/03/11 08:35:31;;;;;;;22.80;12.90;;;5.90;59.30;;;;;;5074979;28;20032;-54
2022/03/11 08:37:59;;;;;;;22.67;13.18;;;6.10;54.60;;;;;;5076241;28;20055;-54
2022/03/11 08:40:26;;;;;;;26.23;13.48;;;6.70;53.40;;;;;;5075542;28;20029;-54
2022/03/11 08:42:53;;;;;;;23.67;12.23;;;7.00;53.10;;;;;;5074506;28;20036;-54
2022/03/11 08:45:21;;;;;;;35.33;15.43;;;7.80;48.70;;;;;;5074589;28;20025;-54
2022/03/11 08:47:48;;;;;;;24.15;14.27;;;7.10;51.40;;;;;;5074871;28;20033;-54
2022/03/11 08:50:15;;;;;;;31.92;14.80;;;6.80;49.00;;;;;;5071789;28;20025;-54
2022/03/11 08:52:42;;;;;;;24.90;14.20;;;6.50;50.30;;;;;;5074297;28;20021;-54
2022/03/11 08:55:09;;;;;;;23.27;12.63;;;6.80;51.40;;;;;;5071958;28;20411;-54
2022/03/11 08:57:37;;;;;;;25.52;14.10;;;6.30;51.60;;;;;;5075117;28;20036;-54
2022/03/11 09:00:16;;;;;;;25.00;13.77;;;7.00;50.60;;;;;;5074651;28;20118;-55
2022/03/11 09:02:47;;;;;;;26.52;13.68;;;7.00;48.90;;;;;;5073235;28;20037;-55
2022/03/11 09:05:15;;;;;;;22.33;13.05;;;7.10;45.20;;;;;;5073819;28;20103;-54
2022/03/11 09:07:41;;;;;;;25.23;12.70;;;8.20;46.00;;;;;;5071463;28;20038;-54
2022/03/11 09:10:09;;;;;;;20.05;12.05;;;9.00;44.00;;;;;;5073520;28;20048;-54
2022/03/11 09:12:36;;;;;;;22.95;12.60;;;9.40;38.10;;;;;;5074176;28;20493;-54
2022/03/11 09:15:03;;;;;;;22.67;12.48;;;8.80;37.30;;;;;;5074463;28;20040;-54
2022/03/11 09:17:29;;;;;;;25.33;14.00;;;8.60;38.70;;;;;;5092409;28;20095;-54
2022/03/11 09:19:56;;;;;;;26.15;13.35;;;8.60;39.80;;;;;;5094509;28;20039;-54
2022/03/11 09:22:22;;;;;;;23.45;12.30;;;9.90;40.00;;;;;;5086787;28;20086;-54
2022/03/11 09:24:48;;;;;;;25.35;12.90;;;10.20;38.50;;;;;;5074989;28;20430;-54
2022/03/11 09:27:18;;;;;;;24.40;12.93;;;10.30;36.90;;;;;;5075087;28;20036;-54
2022/03/11 09:29:45;;;;;;;27.17;13.90;;;10.20;35.40;;;;;;5074954;28;20385;-54
2022/03/11 09:32:11;;;;;;;25.35;13.02;;;10.10;35.20;;;;;;5074496;28;20020;-54
2022/03/11 09:34:37;;;;;;;21.27;12.20;;;10.00;35.20;;;;;;5075140;28;20037;-54
2022/03/11 09:37:05;;;;;;;18.67;11.90;;;10.30;32.80;;;;;;5074403;28;20029;-54
2022/03/11 09:39:31;;;;;;;28.10;12.93;;;10.20;32.00;;;;;;5074138;28;20035;-54
2022/03/11 09:41:57;;;;;;;23.15;13.65;;;10.70;32.80;;;;;;5073694;28;20020;-54
2022/03/11 09:44:24;;;;;;;24.15;13.13;;;10.80;32.10;;;;;;5072902;28;20045;-54
2022/03/11 09:46:50;;;;;;;24.85;14.95;;;11.00;32.00;;;;;;5071269;28;20032;-54
2022/03/11 09:49:20;;;;;;;24.08;12.18;;;10.80;33.60;;;;;;5073178;28;20025;-54
2022/03/11 09:51:47;;;;;;;30.48;13.88;;;11.20;32.70;;;;;;5073626;28;20025;-54
2022/03/11 09:54:14;;;;;;;17.13;10.68;;;10.60;31.90;;;;;;5073491;28;20024;-54
2022/03/11 09:56:41;;;;;;;23.30;8.10;;;10.80;32.00;;;;;;5073133;28;20017;-54
2022/03/11 09:59:09;;;;;;;13.50;9.15;;;11.30;30.10;;;;;;5073223;28;20445;-54
2022/03/11 10:01:35;;;;;;;11.82;8.13;;;11.10;29.40;;;;;;5072987;28;20402;-55
2022/03/11 10:04:04;;;;;;;17.15;8.70;;;11.10;29.10;;;;;;5090251;28;20028;-54
2022/03/11 10:06:48;;;;;;;27.73;10.73;;;10.80;28.60;;;;;;5088573;28;20029;-54
2022/03/11 10:09:17;;;;;;;14.45;9.52;;;11.00;29.30;;;;;;5067869;28;20080;-55
2022/03/11 10:11:46;;;;;;;28.30;11.05;;;12.40;29.10;;;;;;5061957;28;20028;-54
2022/03/11 10:14:13;;;;;;;13.60;8.90;;;12.00;27.90;;;;;;5071992;28;20230;-54
2022/03/11 10:16:42;;;;;;;28.48;10.82;;;10.20;27.40;;;;;;5073054;28;20033;-54
2022/03/11 10:19:13;;;;;;;15.48;8.88;;;9.40;29.10;;;;;;5073847;28;20021;-54
2022/03/11 10:21:40;;;;;;;19.77;9.35;;;9.50;30.00;;;;;;5073492;28;20490;-54
2022/03/11 10:24:08;;;;;;;16.17;8.70;;;9.20;30.50;;;;;;5056319;28;20471;-54
2022/03/11 10:26:40;;;;;;;22.08;11.05;;;9.50;30.00;;;;;;5054492;28;20029;-54
2022/03/11 10:29:11;;;;;;;17.58;9.52;;;9.80;30.40;;;;;;5062320;28;20381;-54
2022/03/11 10:31:45;;;;;;;11.93;8.35;;;9.70;30.00;;;;;;5071745;28;20478;-54
2022/03/11 10:34:19;;;;;;;12.77;8.50;;;9.90;30.00;;;;;;5072325;28;20025;-54
2022/03/11 10:36:50;;;;;;;16.77;8.50;;;10.20;29.80;;;;;;5060997;28;20017;-54
2022/03/11 10:39:28;;;;;;;13.80;8.48;;;11.00;29.90;;;;;;5051901;28;20028;-54
2022/03/11 10:42:20;;;;;;;14.27;8.38;;;11.60;29.10;;;;;;5058574;28;20037;-54
2022/03/11 10:45:00;;;;;;;45.00;12.13;;;11.60;28.60;;;;;;5047046;28;20063;-54
2022/03/11 10:47:30;;;;;;;13.20;7.85;;;11.20;28.40;;;;;;5044340;28;20349;-55
2022/03/11 10:50:02;;;;;;;22.40;10.00;;;11.80;28.20;;;;;;5053200;28;20486;-55
2022/03/11 10:52:46;;;;;;;13.30;7.93;;;11.70;28.20;;;;;;5053727;28;20040;-55
2022/03/11 10:55:29;;;;;;;16.85;8.45;;;11.70;27.40;;;;;;5048199;28;20827;-55
2022/03/11 10:58:00;;;;;;;10.52;7.55;;;11.80;27.50;;;;;;5071589;28;20421;-55
2022/03/11 11:00:34;;;;;;;38.10;10.68;;;11.50;26.80;;;;;;5078081;28;20029;-55
2022/03/11 11:03:03;;;;;;;11.90;7.95;;;11.70;26.50;;;;;;5068161;28;20746;-55
2022/03/11 11:05:30;;;;;;;13.35;7.35;;;11.40;26.10;;;;;;5065851;28;20057;-55
2022/03/11 11:07:58;;;;;;;14.02;7.57;;;10.40;26.50;;;;;;5058612;28;20057;-55
2022/03/11 11:10:26;;;;;;;13.50;7.40;;;10.70;28.20;;;;;;5072408;28;20044;-55
2022/03/11 11:12:52;;;;;;;14.82;7.38;;;11.20;27.40;;;;;;5070853;28;20021;-55
2022/03/11 11:15:19;;;;;;;14.48;6.95;;;11.70;27.10;;;;;;5075067;28;20043;-55
2022/03/11 11:17:49;;;;;;;17.70;10.55;;;12.40;26.30;;;;;;5074911;28;20641;-55
2022/03/11 11:20:23;;;;;;;12.70;7.83;;;11.90;25.70;;;;;;5049371;28;20024;-55
2022/03/11 11:22:52;;;;;;;9.50;6.53;;;12.60;26.20;;;;;;5076587;28;20029;-55
2022/03/11 11:25:23;;;;;;;18.05;8.88;;;12.40;25.00;;;;;;5077393;28;20033;-55
2022/03/11 11:27:51;;;;;;;13.05;6.80;;;11.70;24.90;;;;;;5077370;28;20067;-55
2022/03/11 11:30:22;;;;;;;26.48;9.57;;;11.00;25.40;;;;;;5077565;28;20123;-55
2022/03/11 11:32:52;;;;;;;11.43;6.97;;;11.70;26.60;;;;;;5077113;28;20458;-55
2022/03/11 11:35:25;;;;;;;18.98;10.55;;;12.20;26.60;;;;;;5077364;28;20101;-55
2022/03/11 11:37:51;;;;;;;22.10;7.57;;;12.20;26.40;;;;;;5076630;28;20432;-55
2022/03/11 11:40:30;;;;;;;11.80;6.57;;;12.90;26.10;;;;;;5076251;28;20063;-55
2022/03/11 11:43:28;;;;;;;28.00;9.20;;;12.30;25.80;;;;;;5075869;28;20031;-55
2022/03/11 11:46:02;;;;;;;14.48;8.65;;;12.20;25.30;;;;;;5075966;28;20650;-55
2022/03/11 11:48:45;;;;;;;11.57;7.75;;;11.20;25.90;;;;;;5075951;28;20016;-55
2022/03/11 11:51:13;;;;;;;20.92;7.97;;;11.80;25.60;;;;;;5075966;28;20458;-55
2022/03/11 11:53:41;;;;;;;17.48;9.20;;;12.40;26.00;;;;;;5076165;28;20028;-55
2022/03/11 11:56:26;;;;;;;28.88;11.40;;;12.80;26.30;;;;;;5075945;28;20032;-55
2022/03/11 11:58:55;;;;;;;45.42;21.23;;;12.70;25.20;;;;;;5075841;28;20033;-55
2022/03/11 12:01:48;;;;;;;14.65;6.30;;;12.40;24.40;;;;;;5075905;28;20032;-56
2022/03/11 12:04:34;;;;;;;19.23;9.32;;;11.80;23.90;;;;;;5076294;28;20031;-55
2022/03/11 12:07:17;;;;;;;31.77;10.93;;;11.90;24.80;;;;;;5075339;28;20028;-56
2022/03/11 12:09:45;;;;;;;12.90;8.02;;;12.30;24.90;;;;;;5065657;28;20068;-54
2022/03/11 12:12:21;;;;;;;11.70;6.53;;;11.50;25.20;;;;;;5063628;28;20083;-54
2022/03/11 12:15:03;;;;;;;12.57;7.50;;;11.20;25.70;;;;;;5075202;28;20056;-54
2022/03/11 12:17:42;;;;;;;14.75;7.70;;;11.10;25.60;;;;;;5091901;28;20031;-54
2022/03/11 12:20:33;;;;;;;9.07;5.97;;;11.80;26.40;;;;;;5089789;28;20036;-54
2022/03/11 12:23:12;;;;;;;8.50;5.90;;;12.40;25.80;;;;;;5089029;28;20137;-55
2022/03/11 12:25:58;;;;;;;10.80;6.43;;;12.40;25.00;;;;;;5088609;28;20039;-55
2022/03/11 12:28:33;;;;;;;17.05;6.80;;;11.90;24.90;;;;;;5090076;28;20020;-55
2022/03/11 12:31:10;;;;;;;14.75;7.10;;;11.90;24.60;;;;;;5089617;28;20115;-55
2022/03/11 12:33:46;;;;;;;21.83;7.35;;;12.20;24.80;;;;;;5083154;28;20081;-54
2022/03/11 12:36:16;;;;;;;11.07;7.13;;;12.10;24.10;;;;;;5075325;28;20024;-54
2022/03/11 12:38:43;;;;;;;13.48;7.85;;;11.90;23.90;;;;;;5075542;28;20450;-54
2022/03/11 12:41:14;;;;;;;14.25;7.05;;;11.80;24.70;;;;;;5069585;28;20086;-54
2022/03/11 12:43:42;;;;;;;9.77;5.90;;;11.90;25.00;;;;;;5057161;28;20112;-54
2022/03/11 12:46:10;;;;;;;12.93;8.25;;;11.20;24.90;;;;;;5054998;28;20020;-54